Time;durP1;ratioP1;P1;durP2;ratioP2;P2;SDS_P1;SDS_P2;PMS_P1;PMS_P2;Temp;Humidity;BMP_temperature;BMP_pressure;BME280_temperature;BME280_humidity;BME280_pressure;Samples;Min_cycle;Max_cycle;Signal;HPM_P1;HPM_P2
2023/07/14 00:00:31;;;;;;;9.05;2.65;;;;;;;17.43;77.13;101284.34;5030846;28;20518;-61
2023/07/14 00:02:57;;;;;;;5.95;2.28;;;;;;;17.41;76.58;101289.63;5030117;28;20041;-61
2023/07/14 00:05:27;;;;;;;4.95;2.35;;;;;;;17.39;76.57;101278.34;5035457;28;20086;-61
2023/07/14 00:07:54;;;;;;;3.63;1.90;;;;;;;17.39;76.79;101280.13;5040956;28;20550;-61
2023/07/14 00:10:34;;;;;;;4.72;2.53;;;;;;;17.38;77.01;101294.09;5034164;28;20095;-60
2023/07/14 00:13:03;;;;;;;5.50;2.47;;;;;;;17.37;77.33;101289.75;5030611;28;20064;-61
2023/07/14 00:15:31;;;;;;;5.75;2.50;;;;;;;17.34;77.33;101275.03;5034024;28;20039;-60
2023/07/14 00:18:23;;;;;;;4.10;1.90;;;;;;;17.36;77.52;101273.22;5037619;28;20148;-60
2023/07/14 00:20:48;;;;;;;3.35;2.20;;;;;;;17.37;77.52;101269.72;5031611;28;20040;-61
2023/07/14 00:23:15;;;;;;;5.10;2.05;;;;;;;17.41;77.37;101266.13;5039142;28;20044;-60
2023/07/14 00:25:41;;;;;;;4.90;2.38;;;;;;;17.42;77.15;101259.97;5032695;28;20073;-62
2023/07/14 00:28:18;;;;;;;3.72;2.00;;;;;;;17.46;76.79;101252.91;5030834;28;20770;-62
2023/07/14 00:30:44;;;;;;;5.97;2.20;;;;;;;17.48;76.60;101251.13;5034620;28;20454;-62
2023/07/14 00:33:12;;;;;;;5.28;1.50;;;;;;;17.50;75.88;101256.28;5029924;28;20033;-62
2023/07/14 00:35:38;;;;;;;6.65;2.55;;;;;;;17.56;75.43;101258.72;5034180;28;20044;-62
2023/07/14 00:38:03;;;;;;;3.78;2.20;;;;;;;17.57;75.84;101255.22;5030371;28;20045;-62
2023/07/14 00:40:32;;;;;;;6.60;2.40;;;;;;;17.58;75.74;101247.31;5035159;28;20032;-62
2023/07/14 00:42:58;;;;;;;3.85;2.20;;;;;;;17.58;75.87;101254.31;5034027;28;20044;-62
2023/07/14 00:45:27;;;;;;;5.90;2.88;;;;;;;17.59;75.43;101249.03;5038776;28;20910;-62
2023/07/14 00:47:57;;;;;;;3.90;2.13;;;;;;;17.59;75.58;101256.88;5040243;28;20045;-62
2023/07/14 00:50:38;;;;;;;4.63;2.45;;;;;;;17.62;75.46;101253.31;5037895;28;20950;-61
2023/07/14 00:53:10;;;;;;;6.43;2.38;;;;;;;17.66;75.11;101252.34;5038828;28;20032;-62
2023/07/14 00:55:40;;;;;;;5.65;2.20;;;;;;;17.71;74.60;101243.47;5037221;28;20107;-61
2023/07/14 00:58:19;;;;;;;7.85;2.40;;;;;;;17.79;73.90;101249.31;5031855;28;20041;-61
2023/07/14 01:01:01;;;;;;;4.30;1.85;;;;;;;17.80;73.84;101248.41;5038910;28;20049;-62
2023/07/14 01:03:26;;;;;;;3.45;1.65;;;;;;;17.82;73.64;101246.59;5036532;28;20718;-62
2023/07/14 01:05:52;;;;;;;8.10;2.50;;;;;;;17.83;73.71;101250.94;5037445;28;20305;-62
2023/07/14 01:08:19;;;;;;;3.33;1.90;;;;;;;17.81;73.39;101241.44;5032623;28;20057;-61
2023/07/14 01:10:46;;;;;;;6.00;2.10;;;;;;;17.77;73.54;101247.63;5037887;28;20032;-62
2023/07/14 01:13:11;;;;;;;5.25;1.88;;;;;;;17.72;73.75;101242.53;5035415;28;20041;-62
2023/07/14 01:15:39;;;;;;;4.70;1.92;;;;;;;17.68;74.10;101246.16;5038139;28;20834;-62
2023/07/14 01:18:05;;;;;;;3.63;2.33;;;;;;;17.64;74.10;101238.44;5033934;28;20037;-62
2023/07/14 01:20:30;;;;;;;5.97;2.17;;;;;;;17.60;74.22;101244.69;5038155;28;20037;-61
2023/07/14 01:23:33;;;;;;;4.18;1.90;;;;;;;17.55;74.16;101250.03;5039948;28;20029;-62
2023/07/14 01:26:11;;;;;;;3.33;1.90;;;;;;;17.53;74.25;101251.84;5034165;28;20045;-61
2023/07/14 01:28:37;;;;;;;2.50;1.55;;;;;;;17.53;74.09;101256.19;5033662;28;20099;-62
2023/07/14 01:31:02;;;;;;;3.85;1.75;;;;;;;17.52;74.24;101260.56;5037273;28;20545;-62
2023/07/14 01:33:28;;;;;;;3.42;1.92;;;;;;;17.51;74.36;101261.50;5035985;28;20044;-62
2023/07/14 01:35:59;;;;;;;7.78;2.92;;;;;;;17.49;74.34;101259.78;5037754;28;20037;-61
2023/07/14 01:38:24;;;;;;;3.55;1.80;;;;;;;17.48;74.35;101261.56;5035132;28;20064;-62
2023/07/14 01:40:50;;;;;;;4.18;1.90;;;;;;;17.47;73.87;101259.84;5038639;28;20135;-62
2023/07/14 01:43:16;;;;;;;4.00;2.20;;;;;;;17.49;73.76;101255.44;5033356;28;20151;-62
2023/07/14 01:45:48;;;;;;;4.13;1.92;;;;;;;17.49;73.46;101254.56;5037830;28;20100;-62
2023/07/14 01:48:17;;;;;;;4.57;2.10;;;;;;;17.49;72.96;101247.59;5036442;28;20048;-62
2023/07/14 01:50:48;;;;;;;2.97;2.00;;;;;;;17.46;72.55;101252.03;5036054;28;20071;-62
2023/07/14 01:53:23;;;;;;;9.43;1.73;;;;;;;17.42;72.97;101249.50;5035497;28;20441;-62
2023/07/14 01:55:51;;;;;;;6.10;2.00;;;;;;;17.41;72.73;101244.34;5036623;28;20772;-62
2023/07/14 01:58:25;;;;;;;3.63;1.90;;;;;;;17.34;72.75;101248.03;5029771;28;20944;-62
2023/07/14 02:00:52;;;;;;;2.95;2.00;;;;;;;17.27;73.30;101249.13;5028175;28;20040;-63
2023/07/14 02:03:29;;;;;;;5.50;2.03;;;;;;;17.19;73.47;101256.28;5042148;28;20036;-61
2023/07/14 02:05:54;;;;;;;3.85;1.83;;;;;;;17.14;73.88;101255.56;5046323;28;20039;-62
2023/07/14 02:08:25;;;;;;;3.75;1.83;;;;;;;17.08;74.18;101258.34;5039807;28;20032;-62
2023/07/14 02:10:51;;;;;;;3.15;1.70;;;;;;;17.02;74.68;101254.16;5037786;28;20035;-62
2023/07/14 02:13:17;;;;;;;6.18;2.25;;;;;;;16.98;74.46;101251.69;5037580;28;20049;-62
2023/07/14 02:15:44;;;;;;;5.88;1.92;;;;;;;16.93;74.63;101250.91;5039180;28;20071;-61
2023/07/14 02:18:15;;;;;;;4.95;1.65;;;;;;;16.90;74.75;101248.38;5039769;28;20725;-62
2023/07/14 02:20:42;;;;;;;2.63;1.55;;;;;;;16.86;74.72;101252.84;5042119;28;20591;-61
2023/07/14 02:23:12;;;;;;;4.03;1.80;;;;;;;16.81;75.36;101246.88;5040947;28;20083;-61
2023/07/14 02:25:46;;;;;;;4.20;1.92;;;;;;;16.77;75.31;101247.88;5040263;28;20044;-61
2023/07/14 02:28:12;;;;;;;3.83;2.00;;;;;;;16.74;75.35;101248.75;5036022;28;20033;-62
2023/07/14 02:30:39;;;;;;;4.80;2.10;;;;;;;16.70;75.50;101252.38;5036124;28;20064;-62
2023/07/14 02:33:24;;;;;;;3.35;1.83;;;;;;;16.68;76.12;101259.34;5032247;28;20107;-61
2023/07/14 02:36:04;;;;;;;5.22;2.20;;;;;;;16.65;75.88;101253.38;5046663;28;20063;-62
2023/07/14 02:38:30;;;;;;;3.75;1.90;;;;;;;16.60;76.12;101263.91;5039886;28;20143;-61
2023/07/14 02:41:19;;;;;;;3.20;2.15;;;;;;;16.62;75.85;101269.94;5036418;28;20394;-61
2023/07/14 02:43:48;;;;;;;3.35;2.33;;;;;;;16.58;75.93;101254.41;5035423;28;20052;-61
2023/07/14 02:46:43;;;;;;;4.90;1.85;;;;;;;16.53;76.41;101264.13;5038177;28;20595;-62
2023/07/14 02:49:09;;;;;;;4.60;1.98;;;;;;;16.50;76.20;101262.47;5039105;28;20048;-61
2023/07/14 02:51:35;;;;;;;2.63;2.00;;;;;;;16.47;76.24;101254.69;5039532;28;20033;-62
2023/07/14 02:54:00;;;;;;;3.72;2.03;;;;;;;16.42;76.08;101261.75;5043154;28;20049;-62
2023/07/14 02:56:25;;;;;;;4.25;2.40;;;;;;;16.40;76.50;101260.94;5038774;28;20099;-62
2023/07/14 02:58:51;;;;;;;3.28;2.00;;;;;;;16.35;76.52;101262.81;5040400;28;20032;-62
2023/07/14 03:01:18;;;;;;;3.90;2.50;;;;;;;16.34;76.53;101263.72;5042746;28;20049;-62
2023/07/14 03:03:46;;;;;;;4.85;2.58;;;;;;;16.33;77.12;101261.97;5036496;28;20040;-62
2023/07/14 03:06:13;;;;;;;4.22;2.13;;;;;;;16.31;77.16;101254.22;5038657;28;20040;-62
2023/07/14 03:08:38;;;;;;;4.70;1.67;;;;;;;16.29;77.12;101258.59;5039077;28;20032;-61
2023/07/14 03:11:04;;;;;;;4.50;2.40;;;;;;;16.28;77.65;101256.03;5040615;28;20519;-62
2023/07/14 03:13:29;;;;;;;6.32;2.30;;;;;;;16.26;77.65;101263.03;5036531;28;20080;-62
2023/07/14 03:15:55;;;;;;;4.53;1.73;;;;;;;16.24;78.00;101256.97;5036853;28;20121;-62
2023/07/14 03:18:20;;;;;;;5.13;2.30;;;;;;;16.21;78.50;101259.66;5040325;28;20037;-63
2023/07/14 03:20:46;;;;;;;5.32;2.45;;;;;;;16.18;78.50;101262.34;5041908;28;20043;-61
2023/07/14 03:23:11;;;;;;;3.22;1.95;;;;;;;16.18;78.42;101257.13;5036957;28;20090;-63
2023/07/14 03:25:37;;;;;;;5.32;2.17;;;;;;;16.17;78.38;101258.91;5036400;28;20029;-62
2023/07/14 03:28:03;;;;;;;4.13;1.88;;;;;;;16.16;78.60;101251.97;5040885;28;20123;-62
2023/07/14 03:30:29;;;;;;;4.78;2.17;;;;;;;16.15;78.47;101255.44;5037517;28;20037;-61
2023/07/14 03:32:54;;;;;;;3.55;2.22;;;;;;;16.13;78.85;101253.78;5036440;28;20128;-62
2023/07/14 03:35:20;;;;;;;4.50;2.58;;;;;;;16.11;79.05;101246.00;5037195;28;20029;-62
2023/07/14 03:37:46;;;;;;;4.38;2.08;;;;;;;16.10;78.63;101251.25;5040549;28;20037;-62
2023/07/14 03:40:12;;;;;;;4.32;2.35;;;;;;;16.09;78.87;101246.91;5037919;28;20038;-62
2023/07/14 03:42:38;;;;;;;4.50;2.40;;;;;;;16.08;79.01;101251.28;5037003;28;20075;-62
2023/07/14 03:45:05;;;;;;;4.05;2.30;;;;;;;16.07;78.74;101246.09;5044818;28;20036;-62
2023/07/14 03:47:31;;;;;;;3.55;2.15;;;;;;;16.07;79.00;101259.13;5044379;28;20044;-62
2023/07/14 03:49:57;;;;;;;4.30;2.47;;;;;;;16.04;79.04;101249.63;5041759;28;20025;-62
2023/07/14 03:52:22;;;;;;;7.72;2.88;;;;;;;16.04;79.42;101246.16;5037966;28;20048;-62
2023/07/14 03:54:48;;;;;;;4.82;2.58;;;;;;;16.03;79.63;101254.88;5037597;28;20409;-62
2023/07/14 03:57:13;;;;;;;4.90;2.90;;;;;;;16.02;80.44;101253.19;5040672;28;20525;-62
2023/07/14 03:59:38;;;;;;;5.22;2.72;;;;;;;16.01;80.55;101241.88;5043338;28;20567;-62
2023/07/14 04:02:04;;;;;;;5.78;2.92;;;;;;;16.00;80.94;101239.31;5039888;28;20029;-62
2023/07/14 04:04:29;;;;;;;4.93;2.33;;;;;;;16.00;80.93;101234.94;5039151;28;20041;-62
2023/07/14 04:06:55;;;;;;;7.90;2.60;;;;;;;16.02;81.15;101240.13;5033355;28;20565;-63
2023/07/14 04:09:20;;;;;;;6.65;2.35;;;;;;;16.04;80.56;101241.81;5040052;28;20037;-63
2023/07/14 04:11:45;;;;;;;5.05;2.38;;;;;;;16.07;81.05;101235.66;5038963;28;20434;-62
2023/07/14 04:14:11;;;;;;;4.07;2.58;;;;;;;16.12;80.93;101239.88;5042561;28;20031;-63
2023/07/14 04:16:37;;;;;;;6.00;2.35;;;;;;;16.19;80.51;101240.59;5037613;28;20432;-62
2023/07/14 04:19:03;;;;;;;5.22;2.35;;;;;;;16.25;80.33;101240.44;5044120;28;20115;-62
2023/07/14 04:21:30;;;;;;;5.60;2.58;;;;;;;16.34;80.52;101237.63;5047524;28;20065;-63
2023/07/14 04:23:56;;;;;;;4.82;2.30;;;;;;;16.43;80.05;101236.53;5037723;28;20732;-61
2023/07/14 04:26:23;;;;;;;3.50;2.20;;;;;;;16.51;79.77;101230.22;5040561;28;20103;-61
2023/07/14 04:28:48;;;;;;;3.03;2.40;;;;;;;16.61;79.69;101229.09;5055669;28;20052;-61
2023/07/14 04:31:14;;;;;;;4.47;2.58;;;;;;;16.70;78.93;101221.03;5037407;28;20771;-60
2023/07/14 04:33:42;;;;;;;9.07;3.13;;;;;;;16.79;78.29;101215.63;5037280;28;20038;-61
2023/07/14 04:36:08;;;;;;;6.10;2.70;;;;;;;16.84;78.20;101212.88;5045417;28;20033;-61
2023/07/14 04:38:33;;;;;;;5.22;2.80;;;;;;;16.87;77.91;101212.78;5043870;28;20059;-61
2023/07/14 04:40:58;;;;;;;6.15;3.10;;;;;;;16.92;77.99;101215.28;5043542;28;20060;-61
2023/07/14 04:43:24;;;;;;;5.75;2.63;;;;;;;16.95;77.83;101213.41;5041034;28;20060;-60
2023/07/14 04:45:51;;;;;;;7.80;2.90;;;;;;;17.00;77.49;101216.78;5040625;28;20040;-61
2023/07/14 04:48:18;;;;;;;8.75;2.92;;;;;;;17.03;77.81;101211.47;5045898;28;20049;-61
2023/07/14 04:50:46;;;;;;;6.43;2.92;;;;;;;17.11;77.78;101211.25;5044021;28;20044;-61
2023/07/14 04:53:13;;;;;;;7.40;3.13;;;;;;;17.19;77.64;101206.66;5038013;28;20044;-61
2023/07/14 04:55:40;;;;;;;7.53;2.83;;;;;;;17.27;77.35;101210.78;5038151;28;20378;-61
2023/07/14 04:58:06;;;;;;;6.82;2.90;;;;;;;17.36;76.90;101210.50;5039719;28;20075;-61
2023/07/14 05:00:33;;;;;;;6.30;2.65;;;;;;;17.48;76.56;101208.44;5035271;28;20064;-61
2023/07/14 05:02:59;;;;;;;5.47;2.70;;;;;;;17.57;76.10;101208.16;5034893;28;20095;-61
2023/07/14 05:05:26;;;;;;;5.45;2.55;;;;;;;17.64;75.69;101207.94;5031823;28;20037;-61
2023/07/14 05:07:52;;;;;;;4.78;2.70;;;;;;;17.72;75.24;101199.88;5042177;28;20028;-61
2023/07/14 05:10:19;;;;;;;5.53;2.60;;;;;;;17.81;74.86;101197.81;5034250;28;20533;-61
2023/07/14 05:12:45;;;;;;;6.57;2.55;;;;;;;17.91;73.86;101193.19;5033624;28;21158;-60
2023/07/14 05:15:10;;;;;;;4.45;2.40;;;;;;;18.01;73.52;101188.50;5035168;28;20131;-61
2023/07/14 05:17:37;;;;;;;6.63;2.40;;;;;;;18.10;73.57;101183.84;5034391;28;20041;-60
2023/07/14 05:20:06;;;;;;;6.28;2.60;;;;;;;18.19;73.13;101185.31;5035385;28;20090;-60
2023/07/14 05:22:32;;;;;;;5.25;2.35;;;;;;;18.34;72.45;101180.44;5036389;28;20160;-60
2023/07/14 05:24:57;;;;;;;4.63;2.55;;;;;;;18.49;72.17;101177.25;5040569;28;20107;-61
2023/07/14 05:27:22;;;;;;;7.63;2.42;;;;;;;18.67;71.20;101173.16;5033698;28;20526;-60
2023/07/14 05:29:49;;;;;;;5.57;2.28;;;;;;;18.80;70.62;101166.59;5036914;28;20047;-60
2023/07/14 05:32:16;;;;;;;6.53;2.72;;;;;;;18.95;70.50;101167.81;5038294;28;20636;-61
2023/07/14 05:34:41;;;;;;;4.80;2.25;;;;;;;19.02;69.51;101154.47;5041743;28;20521;-61
2023/07/14 05:37:06;;;;;;;8.15;2.65;;;;;;;19.03;69.76;101158.75;5031370;28;20037;-61
2023/07/14 05:39:32;;;;;;;7.40;2.17;;;;;;;19.12;70.00;101161.97;5038445;28;21057;-60
2023/07/14 05:41:58;;;;;;;5.15;2.42;;;;;;;19.15;69.48;101154.84;5037383;28;20552;-61
2023/07/14 05:44:24;;;;;;;5.20;2.50;;;;;;;19.24;69.46;101158.88;5038430;28;20031;-61
2023/07/14 05:46:50;;;;;;;5.72;2.40;;;;;;;19.32;68.44;101151.59;5032985;28;20033;-61
2023/07/14 05:49:16;;;;;;;3.97;2.13;;;;;;;19.40;67.71;101146.91;5027905;28;20056;-60
2023/07/14 05:51:41;;;;;;;5.15;2.22;;;;;;;19.41;68.44;101146.00;5037473;28;20682;-61
2023/07/14 05:54:07;;;;;;;4.53;2.22;;;;;;;19.37;69.19;101160.13;5031368;28;20593;-61
2023/07/14 05:56:32;;;;;;;7.88;3.15;;;;;;;19.40;68.96;101154.78;5035690;28;20120;-60
2023/07/14 05:58:58;;;;;;;6.47;2.95;;;;;;;19.30;69.51;101162.13;5031277;28;20068;-61
2023/07/14 06:01:23;;;;;;;11.18;3.35;;;;;;;19.28;69.25;101158.72;5033648;28;20136;-61
2023/07/14 06:03:48;;;;;;;6.28;2.53;;;;;;;19.32;68.72;101157.69;5034230;28;20494;-61
2023/07/14 06:06:14;;;;;;;6.85;2.38;;;;;;;19.44;68.72;101153.75;5037900;28;20187;-61
2023/07/14 06:08:39;;;;;;;6.63;2.58;;;;;;;19.51;67.43;101137.72;5036438;28;20041;-61
2023/07/14 06:11:05;;;;;;;6.07;2.60;;;;;;;19.62;66.88;101134.69;5043028;28;20119;-61
2023/07/14 06:13:30;;;;;;;4.43;2.17;;;;;;;19.70;66.99;101144.84;5037706;28;20033;-61
2023/07/14 06:15:56;;;;;;;6.07;2.55;;;;;;;19.65;67.05;101147.63;5044117;28;20128;-61
2023/07/14 06:18:22;;;;;;;9.07;2.40;;;;;;;19.71;67.51;101154.44;5037820;28;20112;-60
2023/07/14 06:20:47;;;;;;;5.43;2.50;;;;;;;19.79;66.31;101139.28;5035542;28;20088;-60
2023/07/14 06:23:13;;;;;;;6.75;2.47;;;;;;;19.91;67.06;101138.78;5039403;28;20062;-61
2023/07/14 06:25:38;;;;;;;6.20;2.40;;;;;;;20.00;66.49;101128.78;5034461;28;20021;-61
2023/07/14 06:28:04;;;;;;;6.95;2.50;;;;;;;20.13;66.52;101126.47;5036625;28;20494;-61
2023/07/14 06:30:29;;;;;;;6.15;2.45;;;;;;;20.02;64.81;101102.44;5036089;28;20047;-61
2023/07/14 06:32:54;;;;;;;9.38;2.85;;;;;;;20.15;64.87;101104.50;5045244;28;20079;-61
2023/07/14 06:35:22;;;;;;;6.57;1.90;;;;;;;20.39;64.96;101104.38;5045371;28;20098;-61
2023/07/14 06:37:47;;;;;;;7.57;3.08;;;;;;;20.58;63.58;101086.88;5037884;28;20052;-61
2023/07/14 06:40:12;;;;;;;5.18;2.30;;;;;;;20.75;62.71;101076.50;5019459;28;20037;-61
2023/07/14 06:42:38;;;;;;;6.95;2.40;;;;;;;20.92;62.24;101063.44;5037467;28;20091;-60
2023/07/14 06:45:04;;;;;;;7.05;2.17;;;;;;;21.07;61.45;101054.84;5040790;28;20033;-60
2023/07/14 06:47:32;;;;;;;5.05;2.20;;;;;;;21.21;61.11;101055.06;5037422;28;20155;-61
2023/07/14 06:49:58;;;;;;;5.10;2.50;;;;;;;21.30;60.58;101045.88;5038975;28;20029;-60
2023/07/14 06:52:23;;;;;;;7.70;2.25;;;;;;;21.31;59.76;101036.22;5038070;28;20063;-61
2023/07/14 06:54:48;;;;;;;6.47;2.08;;;;;;;21.49;60.50;101044.03;5042830;28;20965;-61
2023/07/14 06:57:14;;;;;;;5.30;2.25;;;;;;;21.58;59.09;101037.53;5037118;28;20044;-61
2023/07/14 06:59:39;;;;;;;8.15;2.28;;;;;;;21.69;58.62;101028.19;5038392;28;20049;-61
2023/07/14 07:02:05;;;;;;;5.80;2.47;;;;;;;21.66;58.40;101025.69;5035379;28;20549;-62
2023/07/14 07:04:34;;;;;;;3.47;1.88;;;;;;;21.87;58.38;101023.75;5041656;28;20043;-63
2023/07/14 07:07:00;;;;;;;6.78;2.30;;;;;;;21.99;57.64;101009.97;5039591;28;20033;-63
2023/07/14 07:09:25;;;;;;;5.75;2.47;;;;;;;21.87;57.45;101009.75;5040767;28;20448;-63
2023/07/14 07:11:50;;;;;;;5.75;2.08;;;;;;;21.74;57.48;101013.00;5035799;28;20064;-63
2023/07/14 07:14:16;;;;;;;4.43;1.92;;;;;;;21.81;56.79;100989.88;5037989;28;20056;-62
2023/07/14 07:16:41;;;;;;;7.28;2.28;;;;;;;21.76;57.68;101024.28;5042420;28;20156;-63
2023/07/14 07:19:06;;;;;;;5.75;2.00;;;;;;;21.82;57.57;101023.13;5038742;28;20033;-63
2023/07/14 07:21:33;;;;;;;5.20;2.08;;;;;;;21.87;56.84;101000.06;5040754;28;20048;-63
2023/07/14 07:23:58;;;;;;;7.78;2.20;;;;;;;21.92;57.17;101010.34;5044137;28;20083;-62
2023/07/14 07:26:23;;;;;;;5.07;2.05;;;;;;;22.02;57.28;101011.59;5044493;28;20040;-63
2023/07/14 07:28:49;;;;;;;4.18;1.80;;;;;;;22.05;56.54;100990.38;5049755;28;20061;-62
2023/07/14 07:31:14;;;;;;;5.80;2.10;;;;;;;22.08;55.13;100977.91;5045823;28;20376;-62
2023/07/14 07:33:40;;;;;;;7.00;1.98;;;;;;;22.25;55.56;100987.53;5048308;28;20037;-62
2023/07/14 07:36:15;;;;;;;4.20;1.90;;;;;;;22.30;54.35;100967.06;5040744;28;20037;-62
2023/07/14 07:38:48;;;;;;;4.88;1.92;;;;;;;22.32;53.40;100958.16;5040736;28;20041;-62
2023/07/14 07:41:20;;;;;;;4.45;1.73;;;;;;;22.37;53.90;100960.56;5038037;28;20033;-62
2023/07/14 07:43:45;;;;;;;6.53;1.95;;;;;;;22.46;54.06;100967.13;5043498;28;20037;-63
2023/07/14 07:46:11;;;;;;;7.15;1.92;;;;;;;22.62;53.26;100952.22;5038996;28;20044;-63
2023/07/14 07:48:37;;;;;;;5.40;1.85;;;;;;;22.84;51.77;100928.97;5037371;28;20041;-63
2023/07/14 07:51:04;;;;;;;7.50;2.03;;;;;;;22.71;51.52;100928.00;5037321;28;20052;-63
2023/07/14 07:53:31;;;;;;;4.85;1.70;;;;;;;22.78;52.30;100935.44;5032960;28;20045;-63
2023/07/14 07:55:58;;;;;;;3.58;1.65;;;;;;;22.89;51.56;100922.50;5049894;28;20034;-63
2023/07/14 07:58:24;;;;;;;7.50;2.05;;;;;;;22.97;52.26;100935.28;5043679;28;20033;-63
2023/07/14 08:00:51;;;;;;;3.67;1.98;;;;;;;23.07;52.64;100936.44;5037654;28;20034;-63
2023/07/14 08:03:16;;;;;;;5.13;2.03;;;;;;;23.16;51.79;100924.50;5043913;28;20029;-63
2023/07/14 08:05:41;;;;;;;4.78;2.00;;;;;;;23.40;51.14;100913.41;5048881;28;20102;-63
2023/07/14 08:08:07;;;;;;;5.55;2.28;;;;;;;23.46;50.02;100891.09;5057109;28;20075;-62
2023/07/14 08:10:32;;;;;;;7.60;1.98;;;;;;;23.70;50.03;100892.25;5040455;28;20056;-64
2023/07/14 08:12:58;;;;;;;7.00;2.20;;;;;;;23.83;49.77;100895.00;5046184;28;20028;-62
2023/07/14 08:15:24;;;;;;;3.50;1.70;;;;;;;23.91;49.85;100898.03;5040382;28;20800;-63
2023/07/14 08:17:54;;;;;;;5.72;1.58;;;;;;;24.21;49.79;100895.31;5045813;28;20037;-63
2023/07/14 08:20:19;;;;;;;5.25;1.90;;;;;;;24.38;48.99;100872.16;5039544;28;20055;-63
2023/07/14 08:22:44;;;;;;;5.15;1.85;;;;;;;24.63;48.49;100873.22;5049562;28;20037;-63
2023/07/14 08:25:10;;;;;;;4.20;1.60;;;;;;;24.45;47.93;100868.19;5042431;28;20090;-63
2023/07/14 08:27:36;;;;;;;5.10;2.20;;;;;;;24.44;48.26;100874.41;5041930;28;20040;-63
2023/07/14 08:30:01;;;;;;;6.25;2.08;;;;;;;24.41;48.61;100886.97;5041674;28;20044;-62
2023/07/14 08:32:26;;;;;;;4.95;2.20;;;;;;;24.61;48.32;100883.06;5044472;28;20048;-62
2023/07/14 08:34:52;;;;;;;4.15;1.63;;;;;;;24.72;47.88;100870.03;5042605;28;20075;-63
2023/07/14 08:37:17;;;;;;;2.90;1.50;;;;;;;24.74;47.48;100862.84;5041356;28;20574;-63
2023/07/14 08:39:43;;;;;;;9.35;2.40;;;;;;;24.68;46.86;100864.06;5054223;28;20163;-63
2023/07/14 08:42:31;;;;;;;4.97;1.83;;;;;;;24.95;46.47;100862.28;5047973;28;20040;-63
2023/07/14 08:45:15;;;;;;;7.43;1.85;;;;;;;24.85;46.84;100865.63;5042214;28;20047;-63
2023/07/14 08:47:53;;;;;;;3.20;1.70;;;;;;;25.12;46.73;100858.50;5045550;28;20056;-63
2023/07/14 08:50:24;;;;;;;3.97;1.75;;;;;;;25.21;45.50;100835.88;5043397;28;20032;-63
2023/07/14 08:52:52;;;;;;;5.80;2.05;;;;;;;24.97;46.10;100848.94;5046840;28;20033;-63
2023/07/14 08:55:22;;;;;;;3.20;1.63;;;;;;;25.00;46.16;100849.59;5040834;28;20044;-63
2023/07/14 08:58:02;;;;;;;3.72;1.73;;;;;;;24.97;45.34;100843.66;5040197;28;20437;-63
2023/07/14 09:00:44;;;;;;;4.40;1.90;;;;;;;25.11;44.99;100834.81;5054493;28;20481;-63
2023/07/14 09:03:18;;;;;;;4.45;1.92;;;;;;;25.47;44.04;100816.47;5046243;28;20029;-62
2023/07/14 09:05:53;;;;;;;5.25;2.10;;;;;;;25.64;43.90;100808.19;5051044;28;20041;-62
2023/07/14 09:08:29;;;;;;;6.00;2.10;;;;;;;25.77;42.80;100790.47;5049371;28;20097;-62
2023/07/14 09:11:19;;;;;;;5.45;1.88;;;;;;;26.09;42.57;100789.03;5035689;28;20033;-63
2023/07/14 09:14:09;;;;;;;3.40;1.80;;;;;;;26.18;43.31;100806.91;5040468;28;20128;-62
2023/07/14 09:16:40;;;;;;;6.30;1.75;;;;;;;26.25;41.53;100783.47;5042374;28;20032;-63
2023/07/14 09:19:27;;;;;;;3.17;1.60;;;;;;;26.15;42.66;100803.66;5045570;28;20041;-62
2023/07/14 09:22:11;;;;;;;4.05;1.60;;;;;;;26.14;41.58;100784.28;5048927;28;20655;-63
2023/07/14 09:25:12;;;;;;;3.87;1.70;;;;;;;26.18;42.90;100808.75;5038875;28;20040;-63
2023/07/14 09:27:41;;;;;;;5.18;1.60;;;;;;;25.83;41.91;100778.63;5030924;28;20213;-63
2023/07/14 09:30:18;;;;;;;4.00;1.55;;;;;;;26.15;41.55;100793.06;5046638;28;20033;-64
2023/07/14 09:32:49;;;;;;;4.60;2.13;;;;;;;26.19;38.08;100741.53;5047879;28;20044;-63
2023/07/14 09:35:25;;;;;;;3.50;1.65;;;;;;;26.33;38.72;100751.13;5046950;28;20044;-62
2023/07/14 09:37:58;;;;;;;3.00;1.55;;;;;;;26.49;37.97;100739.25;5047200;28;20162;-63
2023/07/14 09:40:28;;;;;;;3.33;1.92;;;;;;;26.62;37.66;100740.03;5049774;28;20056;-63
2023/07/14 09:42:56;;;;;;;3.75;1.98;;;;;;;26.70;36.97;100737.66;5044569;28;20055;-63
2023/07/14 09:45:35;;;;;;;4.68;1.92;;;;;;;26.95;37.38;100747.28;5048554;28;20032;-63
2023/07/14 09:48:22;;;;;;;5.20;2.28;;;;;;;27.03;36.37;100730.75;5043292;28;20029;-63
2023/07/14 09:50:47;;;;;;;3.50;1.85;;;;;;;27.04;36.62;100741.28;5052970;28;20032;-63
2023/07/14 09:53:13;;;;;;;5.07;1.88;;;;;;;27.04;36.07;100727.16;5040878;28;20393;-62
2023/07/14 09:55:52;;;;;;;7.03;2.10;;;;;;;26.89;35.96;100730.97;5040583;28;20111;-63
2023/07/14 09:58:21;;;;;;;6.20;1.95;;;;;;;27.16;36.25;100727.03;5035596;28;20068;-64
2023/07/14 10:00:49;;;;;;;4.75;1.88;;;;;;;27.21;36.17;100726.69;5031401;28;20037;-63
2023/07/14 10:03:16;;;;;;;5.65;2.17;;;;;;;27.31;36.21;100726.81;5040054;28;20760;-63
2023/07/14 10:05:58;;;;;;;3.50;2.17;;;;;;;27.43;35.40;100710.75;5042948;28;20132;-63
2023/07/14 10:08:33;;;;;;;3.15;1.92;;;;;;;27.27;35.20;100710.28;5040485;28;20041;-62
2023/07/14 10:11:11;;;;;;;4.20;2.00;;;;;;;27.40;36.55;100732.22;5044062;28;20592;-63
2023/07/14 10:13:37;;;;;;;5.07;2.38;;;;;;;27.37;35.79;100731.66;5039465;28;20041;-63
2023/07/14 10:16:20;;;;;;;3.67;1.90;;;;;;;27.41;35.76;100725.97;5048183;28;20037;-64
2023/07/14 10:18:46;;;;;;;3.10;2.03;;;;;;;27.46;35.73;100710.53;5044915;28;20036;-63
2023/07/14 10:21:20;;;;;;;3.47;1.80;;;;;;;27.22;36.75;100734.50;5043195;28;20033;-63
2023/07/14 10:24:04;;;;;;;4.88;1.98;;;;;;;27.04;38.48;100762.50;5037088;28;20546;-63
2023/07/14 10:26:32;;;;;;;3.22;1.63;;;;;;;27.20;39.64;100772.75;5041928;28;20371;-63
2023/07/14 10:28:58;;;;;;;5.05;2.10;;;;;;;27.45;39.28;100756.66;5045972;28;20029;-63
2023/07/14 10:31:34;;;;;;;7.15;2.50;;;;;;;27.35;38.87;100755.66;5043174;28;20037;-63
2023/07/14 10:34:09;;;;;;;6.18;2.10;;;;;;;27.36;39.07;100749.38;5045637;28;20037;-62
2023/07/14 10:36:37;;;;;;;4.95;2.05;;;;;;;27.19;39.63;100748.03;5042514;28;20510;-62
2023/07/14 10:39:15;;;;;;;4.65;2.00;;;;;;;27.23;39.43;100754.78;5044529;28;20036;-63
2023/07/14 10:41:45;;;;;;;6.97;2.40;;;;;;;27.47;39.55;100744.09;5040148;28;20049;-62
2023/07/14 10:44:25;;;;;;;4.40;1.98;;;;;;;27.90;38.95;100722.94;5043844;28;20394;-62
2023/07/14 10:46:55;;;;;;;4.80;1.95;;;;;;;28.15;38.58;100711.16;5041688;28;20021;-63
2023/07/14 10:49:39;;;;;;;4.13;2.22;;;;;;;27.84;37.68;100707.50;5035638;28;20449;-62
2023/07/14 10:52:15;;;;;;;6.03;2.17;;;;;;;27.82;37.29;100696.97;5035242;28;20060;-63
2023/07/14 10:55:03;;;;;;;4.63;2.35;;;;;;;27.98;37.69;100698.38;5044682;28;20697;-62
2023/07/14 10:57:33;;;;;;;5.72;1.88;;;;;;;27.76;36.86;100660.28;5043971;28;20037;-62
2023/07/14 11:00:25;;;;;;;6.30;2.00;;;;;;;27.62;37.05;100683.63;5041819;28;20029;-63
2023/07/14 11:03:10;;;;;;;3.97;2.15;;;;;;;27.93;36.84;100660.72;5040212;28;20075;-63
2023/07/14 11:05:38;;;;;;;3.80;2.13;;;;;;;28.14;36.67;100662.50;5037912;28;20040;-63
2023/07/14 11:08:04;;;;;;;5.10;2.10;;;;;;;28.34;36.29;100647.53;5040441;28;20102;-64
2023/07/14 11:10:37;;;;;;;4.50;2.38;;;;;;;28.22;36.15;100645.91;5047422;28;20034;-62
2023/07/14 11:13:26;;;;;;;3.55;2.13;;;;;;;27.89;35.88;100630.06;5041950;28;20083;-63
2023/07/14 11:15:57;;;;;;;5.78;2.30;;;;;;;27.76;36.86;100639.03;5052594;28;20052;-62
2023/07/14 11:18:35;;;;;;;4.93;2.03;;;;;;;28.04;36.65;100631.44;5032415;28;20179;-63
2023/07/14 11:21:12;;;;;;;6.47;2.35;;;;;;;28.13;36.34;100620.09;5038284;28;20090;-63
2023/07/14 11:23:54;;;;;;;4.18;1.80;;;;;;;27.80;36.12;100618.38;5033401;28;20076;-63
2023/07/14 11:26:29;;;;;;;4.82;1.90;;;;;;;27.50;36.26;100611.09;5034244;28;20025;-63
2023/07/14 11:29:34;;;;;;;4.43;2.15;;;;;;;27.86;36.58;100609.91;5040676;28;20028;-63
2023/07/14 11:32:01;;;;;;;3.47;2.25;;;;;;;27.94;35.47;100591.50;5017647;28;20088;-62
2023/07/14 11:34:38;;;;;;;6.72;2.28;;;;;;;28.39;36.11;100600.13;5033853;28;20643;-63